Time;durP1;ratioP1;P1;durP2;ratioP2;P2;SDS_P1;SDS_P2;PMS_P1;PMS_P2;Temp;Humidity;BMP_temperature;BMP_pressure;BME280_temperature;BME280_humidity;BME280_pressure;Samples;Min_cycle;Max_cycle;Signal;HPM_P1;HPM_P2
2023/11/15 00:03:40;;;;;;;6.22;0.88;;;;;;;15.88;100.00;101316.50;20929968;28;20052;-74
2023/11/15 00:14:03;;;;;;;5.05;1.05;;;;;;;15.86;100.00;101304.06;20940457;28;20040;-73
2023/11/15 00:24:27;;;;;;;3.65;0.98;;;;;;;15.67;100.00;101303.13;20916803;28;20048;-72
2023/11/15 00:34:50;;;;;;;2.30;0.82;;;;;;;15.59;100.00;101315.53;20915803;28;20084;-73
2023/11/15 00:45:15;;;;;;;5.05;1.02;;;;;;;15.59;100.00;101303.97;20923244;28;20071;-73
2023/11/15 00:55:38;;;;;;;3.20;1.00;;;;;;;15.20;100.00;101284.28;20913824;28;20114;-73
2023/11/15 01:06:03;;;;;;;3.53;0.60;;;;;;;15.24;100.00;101274.53;20914850;28;20134;-73
2023/11/15 01:16:27;;;;;;;4.55;0.60;;;;;;;15.29;100.00;101256.84;20931451;28;20139;-73
2023/11/15 01:26:52;;;;;;;1.25;0.65;;;;;;;15.19;100.00;101262.97;20935864;28;20056;-73
2023/11/15 01:37:15;;;;;;;3.30;0.82;;;;;;;15.19;100.00;101260.31;20930901;28;20140;-73
2023/11/15 01:47:41;;;;;;;3.67;0.70;;;;;;;15.01;100.00;101272.66;20932200;28;20045;-73
2023/11/15 01:58:06;;;;;;;2.33;0.70;;;;;;;14.75;100.00;101271.59;20938565;28;20565;-73
2023/11/15 02:08:30;;;;;;;2.65;0.60;;;;;;;14.70;100.00;101274.19;20935343;28;20048;-73
2023/11/15 02:18:52;;;;;;;1.52;0.50;;;;;;;14.13;100.00;101279.91;20926664;28;20048;-73
2023/11/15 02:29:16;;;;;;;1.80;0.68;;;;;;;14.29;100.00;101279.19;20936274;28;20533;-73
2023/11/15 02:39:40;;;;;;;1.80;0.40;;;;;;;14.54;100.00;101292.69;20881635;28;20037;-73
2023/11/15 02:50:05;;;;;;;28.45;2.55;;;;;;;14.40;100.00;101278.41;20905599;28;20080;-73
2023/11/15 03:00:29;;;;;;;2.55;0.30;;;;;;;14.30;100.00;101273.00;20889525;28;20072;-73
2023/11/15 03:10:53;;;;;;;1.77;0.28;;;;;;;14.28;100.00;101260.56;20892172;28;20052;-73
2023/11/15 03:21:15;;;;;;;2.63;0.50;;;;;;;14.17;100.00;101265.81;20908445;28;20044;-72
2023/11/15 03:31:40;;;;;;;0.88;0.35;;;;;;;14.08;100.00;101276.31;20900528;28;20061;-73
2023/11/15 03:42:03;;;;;;;2.47;0.30;;;;;;;13.67;100.00;101264.38;20863820;28;20037;-72
2023/11/15 03:52:29;;;;;;;3.00;0.40;;;;;;;13.92;100.00;101262.00;20914881;28;20048;-73
2023/11/15 04:02:52;;;;;;;0.80;0.20;;;;;;;13.74;100.00;101264.47;20926124;28;20055;-72
2023/11/15 04:13:19;;;;;;;0.73;0.30;;;;;;;14.08;100.00;101263.06;20904813;28;20045;-73
2023/11/15 04:23:44;;;;;;;1.83;0.40;;;;;;;13.98;100.00;101248.78;20931315;28;20097;-72
2023/11/15 04:34:09;;;;;;;3.50;0.50;;;;;;;13.93;100.00;101254.94;20921977;28;20094;-72
2023/11/15 04:44:31;;;;;;;2.15;1.00;;;;;;;13.86;100.00;101264.59;20928564;28;20049;-72
2023/11/15 04:54:55;;;;;;;2.78;1.17;;;;;;;13.72;100.00;101262.69;20928409;28;20131;-73
2023/11/15 05:05:18;;;;;;;2.30;0.60;;;;;;;13.81;100.00;101263.66;20943697;28;20426;-73
2023/11/15 05:15:43;;;;;;;2.70;0.50;;;;;;;13.83;100.00;101264.59;20924043;28;20054;-72
2023/11/15 05:26:08;;;;;;;1.40;0.52;;;;;;;13.72;100.00;101260.91;20962459;28;20059;-73
2023/11/15 05:36:33;;;;;;;4.78;1.02;;;;;;;14.04;100.00;101245.31;20939919;28;20406;-73
2023/11/15 05:46:55;;;;;;;2.97;0.52;;;;;;;14.47;100.00;101237.72;20937201;28;20044;-73
2023/11/15 05:57:20;;;;;;;2.83;1.60;;;;;;;15.37;100.00;101242.66;20945373;28;20061;-73
2023/11/15 06:07:43;;;;;;;1.30;0.32;;;;;;;16.12;100.00;101248.19;20826680;28;20411;-73
2023/11/15 06:18:10;;;;;;;3.22;0.75;;;;;;;16.87;100.00;101249.06;20885019;28;20486;-72
2023/11/15 06:28:35;;;;;;;3.22;0.40;;;;;;;17.69;100.00;101252.31;20880298;28;20470;-74
2023/11/15 06:38:59;;;;;;;1.13;0.22;;;;;;;18.36;100.00;101243.81;20831044;28;20095;-73
2023/11/15 06:49:22;;;;;;;1.35;0.28;;;;;;;19.10;100.00;101243.06;20952910;28;20048;-75
2023/11/15 06:59:46;;;;;;;2.92;0.47;;;;;;;19.98;100.00;101230.31;20911167;28;20045;-74
2023/11/15 07:10:09;;;;;;;3.55;0.47;;;;;;;20.69;95.34;101239.84;20858052;28;20045;-74
2023/11/15 07:20:34;;;;;;;3.63;0.70;;;;;;;21.59;99.64;101223.75;20903550;28;20037;-74
2023/11/15 07:30:56;;;;;;;3.83;0.68;;;;;;;22.27;95.76;101225.72;20907043;28;20687;-71
2023/11/15 07:41:21;;;;;;;2.00;0.50;;;;;;;22.63;74.31;101239.16;20964640;28;20102;-71
2023/11/15 07:51:44;;;;;;;3.15;1.00;;;;;;;22.99;71.41;101224.72;20969146;28;20071;-72
2023/11/15 08:02:08;;;;;;;1.55;0.40;;;;;;;23.41;64.05;101227.97;20931580;28;20049;-73
2023/11/15 08:12:35;;;;;;;4.90;1.02;;;;;;;23.93;68.76;101236.31;20948951;28;20044;-72
2023/11/15 08:22:59;;;;;;;6.13;1.08;;;;;;;24.37;77.40;101251.94;20958000;28;20076;-73
2023/11/15 08:33:22;;;;;;;7.13;1.10;;;;;;;24.43;85.92;101232.84;20958636;28;20132;-72
2023/11/15 08:43:47;;;;;;;4.97;1.10;;;;;;;24.77;93.38;101226.25;20885819;28;20052;-73
2023/11/15 08:54:10;;;;;;;5.88;1.05;;;;;;;25.08;84.91;101231.47;20883428;28;20036;-73
2023/11/15 09:04:34;;;;;;;5.13;0.70;;;;;;;25.16;77.44;101218.56;20915604;28;20735;-73
2023/11/15 09:14:58;;;;;;;4.97;0.90;;;;;;;24.82;74.24;101214.34;20900310;28;20136;-71
2023/11/15 09:25:23;;;;;;;3.50;0.70;;;;;;;24.91;77.44;101221.28;20930957;28;20049;-73
2023/11/15 09:35:46;;;;;;;4.90;0.90;;;;;;;25.00;81.02;101204.75;20900317;28;20565;-73
2023/11/15 09:46:12;;;;;;;4.43;1.20;;;;;;;25.12;81.80;101204.28;20880915;28;20098;-73
2023/11/15 09:56:35;;;;;;;3.27;0.93;;;;;;;24.97;76.68;101194.03;20867304;28;20140;-73
2023/11/15 10:06:59;;;;;;;5.03;0.80;;;;;;;24.85;81.42;101170.16;20904393;28;20056;-73
2023/11/15 10:17:39;;;;;;;4.22;0.90;;;;;;;25.00;75.90;101169.63;20865316;28;20071;-72
2023/11/15 10:28:07;;;;;;;2.47;0.55;;;;;;;25.14;80.52;101159.16;20849418;28;20045;-73
2023/11/15 10:38:32;;;;;;;4.00;0.82;;;;;;;24.96;81.51;101139.13;20863073;28;20044;-71
2023/11/15 10:48:57;;;;;;;5.82;1.30;;;;;;;24.59;86.85;101136.00;20934801;28;20059;-73
2023/11/15 10:59:23;;;;;;;5.40;1.20;;;;;;;24.46;87.59;101121.19;20927748;28;20157;-73
2023/11/15 11:09:57;;;;;;;5.90;1.08;;;;;;;24.06;91.53;101109.06;20893551;28;20055;-72
2023/11/15 11:20:27;;;;;;;7.13;1.20;;;;;;;23.78;94.96;101105.53;20895640;28;20048;-72
2023/11/15 11:31:18;;;;;;;5.70;0.85;;;;;;;23.83;94.58;101108.94;20812046;28;20404;-72
2023/11/15 11:41:43;;;;;;;5.78;1.10;;;;;;;23.82;94.84;101102.69;20819529;28;20135;-74
2023/11/15 11:52:08;;;;;;;5.50;0.90;;;;;;;23.96;91.11;101098.66;20873736;28;20057;-73
2023/11/15 12:02:34;;;;;;;4.45;1.30;;;;;;;23.88;88.04;101076.44;20835264;28;20045;-73
2023/11/15 12:13:02;;;;;;;6.35;1.13;;;;;;;23.64;88.38;101065.53;20820744;28;20170;-73
2023/11/15 12:23:24;;;;;;;6.68;1.17;;;;;;;23.72;86.75;101062.59;20864737;28;20052;-72
2023/11/15 12:33:49;;;;;;;3.50;0.90;;;;;;;23.69;88.35;101068.97;20873151;28;20033;-71
2023/11/15 12:44:12;;;;;;;4.93;1.00;;;;;;;23.56;91.42;101061.34;20880623;28;20064;-73
2023/11/15 12:54:53;;;;;;;5.00;0.70;;;;;;;23.50;93.97;101061.56;20895928;28;21055;-73
2023/11/15 13:05:26;;;;;;;4.57;1.08;;;;;;;23.33;100.00;101045.88;20879920;28;20040;-72
2023/11/15 13:15:51;;;;;;;4.20;0.85;;;;;;;23.26;100.00;101030.84;20883835;28;20076;-72
2023/11/15 13:26:15;;;;;;;6.82;1.23;;;;;;;23.25;100.00;101021.00;20885259;28;20099;-71
2023/11/15 13:36:39;;;;;;;5.03;1.00;;;;;;;23.18;100.00;101003.25;20892272;28;20466;-71
2023/11/15 13:47:03;;;;;;;4.72;1.20;;;;;;;22.94;100.00;100992.38;20867003;28;21085;-72
2023/11/15 13:57:28;;;;;;;4.90;1.30;;;;;;;22.73;100.00;100993.03;20879958;28;20048;-72
2023/11/15 14:07:52;;;;;;;8.98;1.63;;;;;;;22.48;100.00;100992.84;20886927;28;20045;-71
2023/11/15 14:18:18;;;;;;;6.05;1.50;;;;;;;22.25;100.00;101004.28;20871873;28;20048;-71
2023/11/15 14:28:42;;;;;;;4.60;1.20;;;;;;;22.01;100.00;101004.09;20877000;28;20140;-72
2023/11/15 14:39:07;;;;;;;3.20;1.15;;;;;;;21.93;100.00;101015.00;20867849;28;20103;-72
2023/11/15 14:49:30;;;;;;;6.90;1.70;;;;;;;21.85;100.00;101017.03;20889284;28;20045;-72
2023/11/15 14:59:54;;;;;;;5.50;1.80;;;;;;;21.88;100.00;101033.09;20856089;28;20083;-72
2023/11/15 15:10:17;;;;;;;9.82;2.33;;;;;;;21.73;100.00;101045.09;20918777;28;20048;-73
2023/11/15 15:20:41;;;;;;;10.02;2.08;;;;;;;21.72;100.00;101072.03;20944712;28;20059;-72
2023/11/15 15:31:04;;;;;;;7.43;1.90;;;;;;;21.52;100.00;101069.84;20881430;28;20049;-72
2023/11/15 15:41:29;;;;;;;8.02;2.30;;;;;;;21.26;100.00;101072.28;20926023;28;20045;-73
2023/11/15 15:51:51;;;;;;;9.73;2.85;;;;;;;21.00;100.00;101072.84;20904349;28;20057;-72
2023/11/15 16:02:15;;;;;;;14.07;6.18;;;;;;;20.66;100.00;101086.97;20928417;28;20052;-73
2023/11/15 16:12:38;;;;;;;7.88;2.38;;;;;;;20.50;100.00;101090.88;20943688;28;20049;-72
2023/11/15 16:23:03;;;;;;;7.32;2.50;;;;;;;20.35;100.00;101106.41;20871335;28;20045;-73
2023/11/15 16:33:25;;;;;;;8.95;3.13;;;;;;;20.18;100.00;101112.91;20846095;28;20048;-73
2023/11/15 16:43:49;;;;;;;9.38;4.18;;;;;;;20.01;100.00;101119.50;20848162;28;20045;-73
2023/11/15 16:54:14;;;;;;;7.53;2.42;;;;;;;20.01;100.00;101122.19;20873031;28;20080;-72
2023/11/15 17:04:38;;;;;;;7.85;2.50;;;;;;;20.06;100.00;101117.63;20823249;28;20054;-73
2023/11/15 17:15:00;;;;;;;10.18;3.60;;;;;;;19.83;100.00;101121.56;20893550;28;20045;-73
2023/11/15 17:25:25;;;;;;;5.93;2.33;;;;;;;19.72;100.00;101112.81;20864005;28;20053;-74
2023/11/15 17:35:48;;;;;;;9.50;2.80;;;;;;;19.59;100.00;101113.03;20875943;28;20486;-74
2023/11/15 17:46:13;;;;;;;10.02;2.92;;;;;;;19.47;100.00;101111.44;20888815;28;20057;-74
2023/11/15 17:56:36;;;;;;;7.22;2.92;;;;;;;19.40;100.00;101128.47;20868833;28;20048;-74
2023/11/15 18:07:00;;;;;;;6.72;2.58;;;;;;;19.34;100.00;101124.09;20705550;28;20054;-75
2023/11/15 18:17:22;;;;;;;4.82;1.92;;;;;;;19.21;100.00;101119.81;20679627;28;20089;-75
2023/11/15 18:27:48;;;;;;;7.05;2.50;;;;;;;19.19;100.00;101142.16;20680547;28;20057;-72
2023/11/15 18:38:11;;;;;;;8.27;2.38;;;;;;;19.11;100.00;101158.31;20709658;28;20049;-73
2023/11/15 18:48:35;;;;;;;7.07;2.70;;;;;;;19.04;100.00;101170.00;20721701;28;20061;-73
2023/11/15 18:59:00;;;;;;;7.10;2.40;;;;;;;18.99;100.00;101178.09;20756677;28;20099;-74
2023/11/15 19:09:26;;;;;;;10.13;2.97;;;;;;;18.92;100.00;101164.81;20916148;28;20048;-74
2023/11/15 19:19:49;;;;;;;10.07;3.35;;;;;;;19.01;100.00;101170.06;20914922;28;20103;-73
2023/11/15 19:30:16;;;;;;;8.90;2.67;;;;;;;19.08;100.00;101163.72;20914254;28;20057;-73
2023/11/15 19:40:38;;;;;;;11.77;2.88;;;;;;;19.05;100.00;101167.31;20903217;28;20051;-73
2023/11/15 19:51:03;;;;;;;11.80;5.05;;;;;;;18.95;100.00;101144.25;20891268;28;20053;-73
2023/11/15 20:01:25;;;;;;;12.55;4.80;;;;;;;18.70;100.00;101157.06;20881965;28;20041;-73
2023/11/15 20:11:49;;;;;;;9.15;4.95;;;;;;;18.59;100.00;101148.25;20930729;28;20064;-73
2023/11/15 20:22:12;;;;;;;9.82;4.70;;;;;;;18.56;100.00;101129.56;20897181;28;20079;-74
2023/11/15 20:32:37;;;;;;;9.13;3.88;;;;;;;18.41;100.00;101140.41;20815323;28;20110;-73
2023/11/15 20:43:00;;;;;;;6.88;2.83;;;;;;;18.31;100.00;101146.75;20917872;28;20041;-73
2023/11/15 20:53:25;;;;;;;9.27;3.65;;;;;;;18.21;100.00;101137.91;20925390;28;20455;-75
2023/11/15 21:03:47;;;;;;;12.88;7.18;;;;;;;18.10;100.00;101139.81;20931241;28;20398;-74
2023/11/15 21:14:11;;;;;;;14.43;7.50;;;;;;;18.21;100.00;101132.56;20910902;28;20494;-74
2023/11/15 21:24:33;;;;;;;11.75;4.05;;;;;;;18.16;100.00;101136.19;20953574;28;20556;-74
2023/11/15 21:34:57;;;;;;;5.35;2.40;;;;;;;17.88;100.00;101125.75;20980090;28;20048;-73
2023/11/15 21:45:20;;;;;;;8.25;3.35;;;;;;;17.88;100.00;101116.84;20941892;28;20399;-75
2023/11/15 21:55:45;;;;;;;8.13;3.28;;;;;;;17.83;100.00;101119.56;20953797;28;20055;-74
2023/11/15 22:06:08;;;;;;;11.45;3.60;;;;;;;17.85;100.00;101122.25;20928592;28;20055;-74
2023/11/15 22:16:32;;;;;;;8.30;3.30;;;;;;;17.81;100.00;101113.34;20939026;28;20052;-74
2023/11/15 22:26:55;;;;;;;8.80;3.33;;;;;;;17.81;100.00;101096.44;20880532;28;20510;-74
2023/11/15 22:37:19;;;;;;;15.43;7.97;;;;;;;17.81;100.00;101089.31;20917149;28;20052;-74
2023/11/15 22:47:41;;;;;;;22.17;13.57;;;;;;;17.81;100.00;101083.97;20925203;28;20048;-75
2023/11/15 22:58:05;;;;;;;8.27;4.70;;;;;;;17.77;100.00;101078.69;20907938;28;20573;-75
2023/11/15 23:08:28;;;;;;;13.00;2.95;;;;;;;17.37;100.00;101064.72;20933680;28;20075;-74
2023/11/15 23:18:53;;;;;;;7.68;2.80;;;;;;;17.59;100.00;101060.97;20898190;28;20505;-74
2023/11/15 23:29:16;;;;;;;10.48;2.85;;;;;;;17.29;100.00;101067.44;20936132;28;20144;-74
2023/11/15 23:39:40;;;;;;;7.63;2.40;;;;;;;17.04;100.00;101068.50;20930490;28;20127;-75
2023/11/15 23:50:03;;;;;;;9.02;2.85;;;;;;;16.90;100.00;101073.91;20933894;28;20052;-74
